createdAt,value
2018-11-12T00:00:39.683Z,43.07
2018-11-12T00:03:11.571Z,43.33
2018-11-12T00:05:42.653Z,43.80
2018-11-12T00:08:13.961Z,43.83
2018-11-12T00:10:45.443Z,43.67
2018-11-12T00:13:17.118Z,44.63
2018-11-12T00:15:48.432Z,41.77
2018-11-12T00:18:19.688Z,41.00
2018-11-12T00:20:50.901Z,43.40
2018-11-12T00:23:22.442Z,44.33
2018-11-12T00:25:53.867Z,43.07
2018-11-12T00:28:25.471Z,44.07
2018-11-12T00:30:56.686Z,45.40
2018-11-12T00:33:28.276Z,43.17
2018-11-12T00:35:59.612Z,43.60
2018-11-12T00:38:30.980Z,47.03
2018-11-12T00:41:02.488Z,96.50
2018-11-12T00:43:33.838Z,48.03
2018-11-12T00:46:05.301Z,45.57
2018-11-12T00:48:36.588Z,44.30
2018-11-12T00:51:07.908Z,43.40
2018-11-12T00:53:39.352Z,42.77
2018-11-12T00:56:10.895Z,44.30
2018-11-12T00:58:42.293Z,43.13
2018-11-12T01:01:13.670Z,44.20
2018-11-12T01:03:45.100Z,44.57
2018-11-12T01:06:16.111Z,43.77
2018-11-12T01:08:47.456Z,43.90
2018-11-12T01:11:18.684Z,43.17
2018-11-12T01:13:50.060Z,43.77
2018-11-12T01:16:21.315Z,44.13
2018-11-12T01:18:52.448Z,43.00
2018-11-12T01:21:23.888Z,43.27
2018-11-12T01:23:55.139Z,41.60
2018-11-12T01:26:26.749Z,44.30
2018-11-12T01:28:58.230Z,42.37
2018-11-12T01:31:29.310Z,43.87
2018-11-12T01:34:00.772Z,42.87
2018-11-12T01:36:32.153Z,43.83
2018-11-12T01:39:05.020Z,43.23
2018-11-12T01:41:36.416Z,43.47
2018-11-12T01:44:07.577Z,43.17
2018-11-12T01:46:39.161Z,42.53
2018-11-12T01:49:10.668Z,42.27
2018-11-12T01:51:41.944Z,43.37
2018-11-12T01:54:12.877Z,44.77
2018-11-12T01:56:44.287Z,42.80
2018-11-12T01:59:15.640Z,43.40
2018-11-12T02:01:47.110Z,42.87
2018-11-12T02:04:18.400Z,42.00
2018-11-12T02:06:49.589Z,41.60
2018-11-12T02:09:21.285Z,43.93
2018-11-12T02:11:52.675Z,44.40
2018-11-12T02:14:23.847Z,43.63
2018-11-12T02:16:55.052Z,43.07
2018-11-12T02:19:26.392Z,44.07
2018-11-12T02:21:57.558Z,47.23
2018-11-12T02:24:29.347Z,45.40
2018-11-12T02:27:00.645Z,45.03
2018-11-12T02:29:31.943Z,44.80
2018-11-12T02:32:03.093Z,44.20
2018-11-12T02:34:34.521Z,43.83
2018-11-12T02:37:06.060Z,44.77
2018-11-12T02:39:37.527Z,45.00
2018-11-12T02:42:08.757Z,42.10
2018-11-12T02:44:40.041Z,43.90
2018-11-12T02:47:11.198Z,44.03
2018-11-12T02:49:42.642Z,41.93
2018-11-12T02:52:13.812Z,43.90
2018-11-12T02:54:44.968Z,43.10
2018-11-12T02:57:16.267Z,44.53
2018-11-12T02:59:47.669Z,43.20
2018-11-12T03:02:18.900Z,44.03
2018-11-12T03:04:49.988Z,43.10
2018-11-12T03:07:21.531Z,42.93
2018-11-12T03:09:52.692Z,43.40
2018-11-12T03:12:24.233Z,44.23
2018-11-12T03:14:55.584Z,44.70
2018-11-12T03:17:27.020Z,45.23
2018-11-12T03:19:58.277Z,45.17
2018-11-12T03:22:29.467Z,44.50
2018-11-12T03:25:00.828Z,44.53
2018-11-12T03:27:32.295Z,43.13
2018-11-12T03:30:03.703Z,44.73
2018-11-12T03:32:34.849Z,45.30
2018-11-12T03:35:06.786Z,44.00
2018-11-12T03:37:38.075Z,45.23
2018-11-12T03:40:13.745Z,43.93
2018-11-12T03:42:45.466Z,43.90
2018-11-12T03:45:20.738Z,43.17
2018-11-12T03:47:51.885Z,44.47
2018-11-12T03:50:24.777Z,43.87
2018-11-12T03:52:56.132Z,45.90
2018-11-12T03:55:27.432Z,45.33
2018-11-12T03:57:58.396Z,44.00
2018-11-12T04:00:31.602Z,44.73
2018-11-12T04:03:02.789Z,44.30
2018-11-12T04:05:34.076Z,44.67
2018-11-12T04:08:05.196Z,45.97
2018-11-12T04:10:36.617Z,46.70
2018-11-12T04:13:07.951Z,48.40
2018-11-12T04:15:39.575Z,45.77
2018-11-12T04:18:11.029Z,45.83
2018-11-12T04:20:42.500Z,46.27
2018-11-12T04:23:13.736Z,44.87
2018-11-12T04:25:45.022Z,44.13
2018-11-12T04:28:16.335Z,45.53
2018-11-12T04:30:47.865Z,44.93
2018-11-12T04:33:18.936Z,44.50
2018-11-12T04:35:50.200Z,48.30
2018-11-12T04:38:21.725Z,47.47
2018-11-12T04:40:52.873Z,43.73
2018-11-12T04:43:24.069Z,46.17
2018-11-12T04:45:55.247Z,45.97
2018-11-12T04:48:26.688Z,45.87
2018-11-12T04:50:58.248Z,44.60
2018-11-12T04:53:29.707Z,46.63
2018-11-12T04:56:00.944Z,44.67
2018-11-12T04:58:32.104Z,44.43
2018-11-12T05:01:03.729Z,43.93
2018-11-12T05:03:35.183Z,48.03
2018-11-12T05:06:06.600Z,58.60
2018-11-12T05:08:37.993Z,45.70
2018-11-12T05:11:09.202Z,44.17
2018-11-12T05:13:40.630Z,46.60
2018-11-12T05:16:12.080Z,46.43
2018-11-12T05:18:43.475Z,45.43
2018-11-12T05:21:14.612Z,46.70
2018-11-12T05:23:45.917Z,45.53
2018-11-12T05:26:17.143Z,45.77
2018-11-12T05:28:48.472Z,43.53
2018-11-12T05:31:20.360Z,45.20
2018-11-12T05:33:51.723Z,44.43
2018-11-12T05:36:22.770Z,44.87
2018-11-12T05:38:54.293Z,45.90
2018-11-12T05:41:25.605Z,54.67
2018-11-12T05:43:57.176Z,45.23
2018-11-12T05:46:28.567Z,47.07
2018-11-12T05:48:59.896Z,50.47
2018-11-12T05:51:31.432Z,46.03
2018-11-12T05:54:03.047Z,45.60
2018-11-12T05:56:34.501Z,46.37
2018-11-12T05:59:05.966Z,46.07
2018-11-12T06:01:37.486Z,46.93
2018-11-12T06:04:08.787Z,46.73
2018-11-12T06:06:40.271Z,46.30
2018-11-12T06:09:12.477Z,46.17
2018-11-12T06:11:44.088Z,45.67
2018-11-12T06:14:15.423Z,46.87
2018-11-12T06:16:46.888Z,47.60
2018-11-12T06:19:18.220Z,46.13
2018-11-12T06:21:49.536Z,46.17
2018-11-12T06:24:21.152Z,44.67
2018-11-12T06:26:52.461Z,51.60
2018-11-12T06:29:23.997Z,47.93
2018-11-12T06:31:55.300Z,48.17
2018-11-12T06:34:26.900Z,47.17
2018-11-12T06:36:58.490Z,45.77
2018-11-12T06:39:29.617Z,46.57
2018-11-12T06:42:01.178Z,45.23
2018-11-12T06:44:32.344Z,45.27
2018-11-12T06:47:03.568Z,45.53
2018-11-12T06:49:34.732Z,45.77
2018-11-12T06:52:06.275Z,46.13
2018-11-12T06:54:37.765Z,45.37
2018-11-12T06:57:09.171Z,46.43
2018-11-12T06:59:40.530Z,45.63
2018-11-12T07:02:11.761Z,45.43
2018-11-12T07:04:43.281Z,45.13
2018-11-12T07:07:14.565Z,46.00
2018-11-12T07:09:46.105Z,46.57
2018-11-12T07:12:17.195Z,44.73
2018-11-12T07:14:48.513Z,45.80
2018-11-12T07:17:19.949Z,45.10
2018-11-12T07:19:51.690Z,46.03
2018-11-12T07:22:23.595Z,45.70
2018-11-12T07:24:55.291Z,50.30
2018-11-12T07:27:26.859Z,45.93
2018-11-12T07:29:58.544Z,61.07
2018-11-12T07:32:30.260Z,47.37
2018-11-12T07:35:01.643Z,45.83
2018-11-12T07:37:33.195Z,43.43
2018-11-12T07:40:04.572Z,44.13
2018-11-12T07:42:36.129Z,44.57
2018-11-12T07:45:09.609Z,43.47
2018-11-12T07:47:41.915Z,45.70
2018-11-12T07:50:15.120Z,43.90
2018-11-12T07:52:46.691Z,43.60
2018-11-12T07:55:20.894Z,42.23
2018-11-12T07:57:53.432Z,54.37
2018-11-12T08:00:28.086Z,50.50
2018-11-12T08:03:09.546Z,51.30
2018-11-12T08:05:41.645Z,46.13
2018-11-12T08:08:13.109Z,43.00
2018-11-12T08:10:44.649Z,41.90
2018-11-12T08:13:15.854Z,44.87
2018-11-12T08:15:47.215Z,45.60
2018-11-12T08:18:18.656Z,44.13
2018-11-12T08:20:49.757Z,43.70
2018-11-12T08:23:21.212Z,44.83
2018-11-12T08:25:52.594Z,42.17
2018-11-12T08:28:23.815Z,43.43
2018-11-12T08:30:55.042Z,43.63
2018-11-12T08:33:26.304Z,45.47
2018-11-12T08:35:57.952Z,44.03
2018-11-12T08:38:29.513Z,42.90
2018-11-12T08:41:00.737Z,43.10
2018-11-12T08:43:32.108Z,42.83
2018-11-12T08:46:03.199Z,42.97
2018-11-12T08:48:34.397Z,43.47
2018-11-12T08:51:05.860Z,43.83
2018-11-12T08:53:37.065Z,42.87
2018-11-12T08:56:08.323Z,46.37
2018-11-12T08:58:39.752Z,45.53
2018-11-12T09:01:11.219Z,43.27
2018-11-12T09:03:42.832Z,43.63
2018-11-12T09:06:13.937Z,43.13
2018-11-12T09:08:45.202Z,40.70
2018-11-12T09:11:16.392Z,41.70
2018-11-12T09:13:47.893Z,40.33
2018-11-12T09:16:20.397Z,39.00
2018-11-12T09:18:51.736Z,38.77
2018-11-12T09:21:23.036Z,37.53
2018-11-12T09:23:54.451Z,35.63
2018-11-12T09:26:25.921Z,35.20
2018-11-12T09:28:57.499Z,37.17
2018-11-12T09:31:29.183Z,36.20
2018-11-12T09:34:00.237Z,36.23
2018-11-12T09:36:31.730Z,36.73
2018-11-12T09:39:03.243Z,35.53
2018-11-12T09:41:34.366Z,37.93
2018-11-12T09:44:05.786Z,36.07
2018-11-12T09:46:37.416Z,34.30
2018-11-12T09:49:09.138Z,35.50
2018-11-12T09:51:40.673Z,33.77
2018-11-12T09:54:12.218Z,35.77
2018-11-12T09:56:43.740Z,35.87
2018-11-12T09:59:15.047Z,36.50
2018-11-12T10:01:46.935Z,37.30
2018-11-12T10:04:18.578Z,36.33
2018-11-12T10:06:50.927Z,39.13
2018-11-12T10:09:22.306Z,36.27
2018-11-12T10:11:53.775Z,37.23
2018-11-12T10:14:26.384Z,36.80
2018-11-12T10:16:57.925Z,34.57
2018-11-12T10:19:26.646Z,37.47
2018-11-12T10:21:58.078Z,40.90
2018-11-12T10:24:29.337Z,36.20
2018-11-12T10:27:00.953Z,37.90
2018-11-12T10:29:32.427Z,39.17
2018-11-12T10:32:03.775Z,38.00
2018-11-12T10:34:35.052Z,37.73
2018-11-12T10:37:06.390Z,39.80
2018-11-12T10:39:37.528Z,37.20
2018-11-12T10:42:09.139Z,36.70
2018-11-12T10:44:40.537Z,38.67
2018-11-12T10:47:11.867Z,37.43
2018-11-12T10:49:43.120Z,37.50
2018-11-12T10:52:14.361Z,35.57
2018-11-12T10:54:45.842Z,33.90
2018-11-12T10:57:17.073Z,34.63
2018-11-12T10:59:48.324Z,32.37
2018-11-12T11:02:24.550Z,30.90
2018-11-12T11:04:56.104Z,29.90
2018-11-12T11:07:27.368Z,29.03
2018-11-12T11:09:58.854Z,28.13
2018-11-12T11:12:30.234Z,28.70
2018-11-12T11:15:01.422Z,21.03
2018-11-12T11:17:32.719Z,21.53
2018-11-12T11:20:04.580Z,18.20
2018-11-12T11:22:35.966Z,20.37
2018-11-12T11:25:07.725Z,21.67
2018-11-12T11:27:39.269Z,18.47
2018-11-12T11:30:14.023Z,17.70
2018-11-12T11:32:45.495Z,18.40
2018-11-12T11:35:17.779Z,21.77
2018-11-12T11:37:49.246Z,23.27
2018-11-12T11:40:21.674Z,24.43
2018-11-12T11:42:53.112Z,21.07
2018-11-12T11:45:24.341Z,20.73
2018-11-12T11:47:55.977Z,16.37
2018-11-12T11:50:27.990Z,16.37
2018-11-12T11:52:59.499Z,16.70
2018-11-12T11:55:31.089Z,15.50
2018-11-12T11:58:02.408Z,14.93
2018-11-12T12:00:33.774Z,14.43
2018-11-12T12:03:05.547Z,15.10
2018-11-12T12:05:36.724Z,13.77
2018-11-12T12:08:08.172Z,14.90
2018-11-12T12:10:39.683Z,14.80
2018-11-12T12:13:11.021Z,14.97
2018-11-12T12:15:42.234Z,16.00
2018-11-12T12:18:13.749Z,15.57
2018-11-12T12:20:45.131Z,23.83
2018-11-12T12:23:16.600Z,26.13
2018-11-12T12:25:48.058Z,20.93
2018-11-12T12:28:19.704Z,17.73
2018-11-12T12:30:50.988Z,16.50
2018-11-12T12:33:23.332Z,15.27
2018-11-12T12:35:54.771Z,16.97
2018-11-12T12:38:26.095Z,17.23
2018-11-12T12:40:57.484Z,16.37
2018-11-12T12:43:28.820Z,17.23
2018-11-12T12:46:00.450Z,15.57
2018-11-12T12:48:31.655Z,15.90
2018-11-12T12:51:02.885Z,16.03
2018-11-12T12:53:34.427Z,15.30
2018-11-12T12:56:06.017Z,16.93
2018-11-12T12:58:37.547Z,15.40
2018-11-12T13:01:09.169Z,15.60
2018-11-12T13:03:40.648Z,15.77
2018-11-12T13:06:12.132Z,17.13
2018-11-12T13:08:43.517Z,16.10
2018-11-12T13:11:14.836Z,19.50
2018-11-12T13:13:46.402Z,14.80
2018-11-12T13:16:17.632Z,14.47
2018-11-12T13:18:48.988Z,16.13
2018-11-12T13:21:20.311Z,20.47
2018-11-12T13:23:51.816Z,19.13
2018-11-12T13:26:23.109Z,14.23
2018-11-12T13:28:54.569Z,16.77
2018-11-12T13:31:26.003Z,14.77
2018-11-12T13:33:57.345Z,13.97
2018-11-12T13:36:28.855Z,19.00
2018-11-12T13:39:00.081Z,18.70
2018-11-12T13:41:31.506Z,19.97
2018-11-12T13:44:02.904Z,16.67
2018-11-12T13:46:39.346Z,15.70
2018-11-12T13:49:10.789Z,15.77
2018-11-12T13:51:42.430Z,11.07
2018-11-12T13:54:13.799Z,11.60
2018-11-12T13:56:45.315Z,14.00
2018-11-12T13:59:16.698Z,12.07
2018-11-12T14:01:48.256Z,14.97
2018-11-12T14:04:19.866Z,13.20
2018-11-12T14:06:51.249Z,14.77
2018-11-12T14:09:22.655Z,11.63
2018-11-12T14:11:53.935Z,15.93
2018-11-12T14:14:25.041Z,11.20
2018-11-12T14:16:56.804Z,12.43
2018-11-12T14:19:35.014Z,10.33
2018-11-12T14:22:06.242Z,11.70
2018-11-12T14:25:43.233Z,13.10
2018-11-12T14:28:14.075Z,17.50
2018-11-12T14:30:44.920Z,17.13
2018-11-12T14:33:15.790Z,17.77
2018-11-12T14:35:46.672Z,18.23
2018-11-12T14:38:17.562Z,17.23
2018-11-12T14:46:56.925Z,16.87
2018-11-12T14:49:53.032Z,18.00
2018-11-12T15:05:29.699Z,23.13
2018-11-12T15:08:01.094Z,21.57
2018-11-12T15:10:32.005Z,22.50
2018-11-12T15:13:02.833Z,21.63
2018-11-12T15:15:33.727Z,23.00
2018-11-12T15:18:04.523Z,23.20
2018-11-12T15:20:35.373Z,22.50
2018-11-12T15:23:06.203Z,22.97
2018-11-12T15:25:37.031Z,22.90
2018-11-12T15:28:07.958Z,23.07
2018-11-12T15:30:38.744Z,22.77
2018-11-12T15:33:09.531Z,22.10
2018-11-12T15:35:40.353Z,24.30
2018-11-12T15:38:11.116Z,24.03
2018-11-12T15:40:41.939Z,22.77
2018-11-12T15:43:12.848Z,23.37
2018-11-12T15:45:43.808Z,23.10
2018-11-12T15:48:14.621Z,37.30
2018-11-12T15:50:45.478Z,24.47
2018-11-12T15:53:16.279Z,25.70
2018-11-12T15:55:47.522Z,44.50
2018-11-12T15:58:18.926Z,40.60
2018-11-12T16:00:50.164Z,27.90
2018-11-12T16:03:21.849Z,24.80
2018-11-12T16:05:53.351Z,37.17
2018-11-12T16:08:24.497Z,42.60
2018-11-12T16:10:55.655Z,25.30
2018-11-12T16:13:26.907Z,23.80
2018-11-12T16:15:58.255Z,28.77
2018-11-12T16:18:30.485Z,40.63
2018-11-12T16:21:01.575Z,41.30
2018-11-12T16:23:33.362Z,32.33
2018-11-12T16:26:05.479Z,29.67
2018-11-12T16:28:39.677Z,43.63
2018-11-12T16:31:15.946Z,24.90
2018-11-12T16:33:48.689Z,27.47
2018-11-12T16:36:21.400Z,26.23
2018-11-12T16:38:53.856Z,25.40
2018-11-12T16:41:27.047Z,25.20
2018-11-12T16:44:00.947Z,24.33
2018-11-12T16:53:46.330Z,27.27
2018-11-12T16:56:25.175Z,27.67
2018-11-12T16:58:56.541Z,27.30
2018-11-12T17:01:28.778Z,28.10
2018-11-12T17:09:33.854Z,27.10
2018-11-12T17:13:23.849Z,26.33
2018-11-12T17:15:57.385Z,32.17
2018-11-12T17:18:37.112Z,32.83
2018-11-12T17:23:55.960Z,37.23
2018-11-12T17:29:44.823Z,34.70
2018-11-12T17:33:43.805Z,32.63
2018-11-12T18:01:11.560Z,37.63
2018-11-12T18:03:55.270Z,37.90
2018-11-12T18:10:49.526Z,40.43
2018-11-12T18:13:38.584Z,39.37
2018-11-12T18:19:28.012Z,40.90
2018-11-12T18:25:49.998Z,37.30
2018-11-12T18:32:19.315Z,49.53
2018-11-12T18:48:49.498Z,52.20
2018-11-12T18:51:30.158Z,50.67
2018-11-12T18:54:15.044Z,48.93
2018-11-12T19:01:38.236Z,46.17
2018-11-12T19:04:30.643Z,46.77
2018-11-12T19:14:33.862Z,46.10
2018-11-12T19:17:22.645Z,58.90
2018-11-12T19:20:07.563Z,55.70
2018-11-12T19:32:30.366Z,47.13
2018-11-12T19:35:01.980Z,47.43
2018-11-12T19:37:33.400Z,47.93
2018-11-12T19:40:05.340Z,46.60
2018-11-12T19:42:36.595Z,48.07
2018-11-12T19:45:10.933Z,47.47
2018-11-12T19:47:42.578Z,51.70
2018-11-12T19:50:16.596Z,49.43
2018-11-12T19:52:49.697Z,48.60
2018-11-12T19:55:21.331Z,50.57
2018-11-12T19:57:52.818Z,63.93
2018-11-12T20:00:26.255Z,46.40
2018-11-12T20:02:58.871Z,43.43
2018-11-12T20:05:30.161Z,43.43
2018-11-12T20:08:01.267Z,40.73
2018-11-12T20:10:32.210Z,43.27
2018-11-12T20:13:03.270Z,42.80
2018-11-12T20:15:34.401Z,42.37
2018-11-12T20:18:05.398Z,42.20
2018-11-12T20:20:37.108Z,42.90
2018-11-12T20:23:10.055Z,41.53
2018-11-12T20:25:42.416Z,47.07
2018-11-12T20:28:14.686Z,43.33
2018-11-12T20:30:46.522Z,41.97
2018-11-12T20:33:18.193Z,44.13
2018-11-12T20:35:49.812Z,41.83
2018-11-12T20:38:21.203Z,42.00
2018-11-12T20:40:53.088Z,43.40
2018-11-12T20:43:25.102Z,42.73
2018-11-12T20:45:57.063Z,40.83
2018-11-12T20:48:29.070Z,43.80
2018-11-12T20:51:00.805Z,43.57
2018-11-12T20:53:31.974Z,42.63
2018-11-12T20:56:03.276Z,52.77
2018-11-12T20:58:34.546Z,54.17
2018-11-12T21:01:05.906Z,224.10
2018-11-12T21:03:37.426Z,62.90
2018-11-12T21:06:09.407Z,45.73
2018-11-12T21:08:42.839Z,42.70
2018-11-12T21:11:15.832Z,40.07
2018-11-12T21:13:48.508Z,41.73
2018-11-12T21:16:20.317Z,40.83
2018-11-12T21:18:51.868Z,67.47
2018-11-12T21:21:22.985Z,44.67
2018-11-12T21:23:55.359Z,59.50
2018-11-12T21:26:26.823Z,131.10
2018-11-12T21:28:58.445Z,68.90
2018-11-12T21:31:29.633Z,50.10
2018-11-12T21:34:01.578Z,43.10
2018-11-12T21:36:33.125Z,41.83
2018-11-12T21:39:05.620Z,42.87
2018-11-12T21:41:36.843Z,41.03
2018-11-12T21:44:08.751Z,42.97
2018-11-12T21:46:39.809Z,41.00
2018-11-12T21:49:11.183Z,39.37
2018-11-12T21:51:42.329Z,38.67
2018-11-12T21:54:13.569Z,38.87
2018-11-12T21:56:44.755Z,38.87
2018-11-12T21:59:16.382Z,38.83
2018-11-12T22:01:47.772Z,37.33
2018-11-12T22:04:19.825Z,38.33
2018-11-12T22:06:52.034Z,40.00
2018-11-12T22:09:23.625Z,38.87
2018-11-12T22:11:54.941Z,39.60
2018-11-12T22:14:26.035Z,38.43
2018-11-12T22:16:57.003Z,38.17
2018-11-12T22:19:28.051Z,38.50
2018-11-12T22:21:58.992Z,38.67
2018-11-12T22:24:29.916Z,38.43
2018-11-12T22:27:00.945Z,38.77
2018-11-12T22:29:32.370Z,37.17
2018-11-12T22:32:03.432Z,37.10
2018-11-12T22:34:34.345Z,40.50
2018-11-12T22:37:05.328Z,42.17
2018-11-12T22:39:36.695Z,38.50
2018-11-12T22:42:08.162Z,35.20
2018-11-12T22:44:39.277Z,36.67
2018-11-12T22:47:10.397Z,37.00
2018-11-12T22:49:41.756Z,37.90
2018-11-12T22:52:12.781Z,36.77
2018-11-12T22:54:43.768Z,36.23
2018-11-12T22:57:14.813Z,37.70
2018-11-12T22:59:45.958Z,37.13
2018-11-12T23:02:17.408Z,35.23
2018-11-12T23:04:48.385Z,38.20
2018-11-12T23:07:19.460Z,35.53
2018-11-12T23:09:50.609Z,37.30
2018-11-12T23:12:21.812Z,36.87
2018-11-12T23:14:52.922Z,38.13
2018-11-12T23:17:24.346Z,39.83
2018-11-12T23:19:55.291Z,38.17
2018-11-12T23:22:26.265Z,35.50
2018-11-12T23:24:57.204Z,39.47
2018-11-12T23:27:28.311Z,37.20
2018-11-12T23:29:59.573Z,37.13
2018-11-12T23:32:30.646Z,34.27
2018-11-12T23:35:01.482Z,36.17
2018-11-12T23:37:32.390Z,36.30
2018-11-12T23:40:03.763Z,35.00
2018-11-12T23:42:34.605Z,35.47
2018-11-12T23:45:06.022Z,34.80
2018-11-12T23:47:37.432Z,35.80
2018-11-12T23:50:13.228Z,34.40
2018-11-12T23:52:44.821Z,34.10
2018-11-12T23:55:15.901Z,36.03
2018-11-12T23:57:47.447Z,34.53
